createdAt,value
2023-04-04T00:01:10.233Z,98181.13
2023-04-04T00:03:38.790Z,98180.28
2023-04-04T00:06:08.968Z,98180.28
2023-04-04T00:08:38.696Z,98174.13
2023-04-04T00:11:07.555Z,98157.44
2023-04-04T00:13:36.119Z,98146.72
2023-04-04T00:16:04.364Z,98143.16
2023-04-04T00:18:32.757Z,98144.00
2023-04-04T00:21:01.065Z,98140.81
2023-04-04T00:23:29.383Z,98138.06
2023-04-04T00:25:58.954Z,98132.00
2023-04-04T00:28:27.126Z,98130.44
2023-04-04T00:30:55.796Z,98133.19
2023-04-04T00:33:24.008Z,98121.16
2023-04-04T00:35:52.339Z,98123.91
2023-04-04T00:38:20.653Z,98130.50
2023-04-04T00:40:52.436Z,98133.94
2023-04-04T00:43:22.184Z,98135.53
2023-04-04T00:45:52.262Z,98141.00
2023-04-04T00:48:25.095Z,98128.28
2023-04-04T00:50:53.811Z,98124.31
2023-04-04T00:53:22.306Z,98124.72
2023-04-04T00:55:50.780Z,98117.81
2023-04-04T00:58:19.610Z,98124.44
2023-04-04T01:00:49.264Z,98119.78
2023-04-04T01:03:17.749Z,98122.16
2023-04-04T01:05:45.899Z,98117.06
2023-04-04T01:08:14.219Z,98112.78
2023-04-04T01:10:43.628Z,98117.09
2023-04-04T01:13:13.577Z,98119.03
2023-04-04T01:15:41.970Z,98111.31
2023-04-04T01:18:14.573Z,98120.19
2023-04-04T01:20:52.652Z,98105.50
2023-04-04T01:23:22.875Z,98109.31
2023-04-04T01:26:04.474Z,98103.56
2023-04-04T01:28:32.773Z,98094.75
2023-04-04T01:31:02.962Z,98082.28
2023-04-04T01:33:38.050Z,98084.97
2023-04-04T01:36:15.714Z,98091.88
2023-04-04T01:38:53.307Z,98090.03
2023-04-04T01:41:24.998Z,98086.19
2023-04-04T01:43:53.841Z,98102.81
2023-04-04T01:46:22.709Z,98100.03
2023-04-04T01:48:50.905Z,98079.22
2023-04-04T01:51:19.241Z,98086.56
2023-04-04T01:53:47.446Z,98093.81
2023-04-04T01:56:15.634Z,98083.78
2023-04-04T01:58:45.889Z,98092.34
2023-04-04T02:01:14.295Z,98091.97
2023-04-04T02:03:42.755Z,98068.03
2023-04-04T02:06:10.880Z,98074.59
2023-04-04T02:08:39.594Z,98071.53
2023-04-04T02:11:07.908Z,98083.09
2023-04-04T02:13:38.590Z,98077.69
2023-04-04T02:16:08.340Z,98070.72
2023-04-04T02:18:37.162Z,98086.63
2023-04-04T02:21:05.586Z,98081.22
2023-04-04T02:23:34.072Z,98076.94
2023-04-04T02:26:02.400Z,98080.81
2023-04-04T02:28:31.483Z,98085.06
2023-04-04T02:31:03.490Z,98082.41
2023-04-04T02:33:33.091Z,98090.16
2023-04-04T02:36:01.655Z,98085.06
2023-04-04T02:38:30.026Z,98078.50
2023-04-04T02:40:58.325Z,98075.88
2023-04-04T02:43:26.598Z,98084.38
2023-04-04T02:45:55.678Z,98078.53
2023-04-04T02:48:24.436Z,98084.72
2023-04-04T02:50:54.119Z,98083.19
2023-04-04T02:53:22.462Z,98067.38
2023-04-04T02:55:51.162Z,98080.06
2023-04-04T02:58:19.379Z,98068.84
2023-04-04T03:00:48.597Z,98077.78
2023-04-04T03:03:17.600Z,98086.22
2023-04-04T03:05:46.462Z,98080.03
2023-04-04T03:08:16.354Z,98073.84
2023-04-04T03:10:46.072Z,98074.25
2023-04-04T03:13:14.258Z,98071.94
2023-04-04T03:15:47.484Z,98082.00
2023-04-04T03:18:15.966Z,98083.09
2023-04-04T03:20:44.240Z,98086.31
2023-04-04T03:23:12.558Z,98076.66
2023-04-04T03:25:42.341Z,98081.94
2023-04-04T03:28:11.477Z,98075.41
2023-04-04T03:30:40.335Z,98083.59
2023-04-04T03:33:09.923Z,98089.44
2023-04-04T03:35:40.016Z,98100.28
2023-04-04T03:38:08.595Z,98102.63
2023-04-04T03:40:36.904Z,98104.91
2023-04-04T03:43:10.089Z,98101.88
2023-04-04T03:45:39.388Z,98102.66
2023-04-04T03:48:08.052Z,98110.78
2023-04-04T03:50:38.305Z,98113.53
2023-04-04T03:53:06.636Z,98108.13
2023-04-04T03:55:35.888Z,98110.38
2023-04-04T03:58:04.157Z,98109.19
2023-04-04T04:00:33.785Z,98116.97
2023-04-04T04:03:02.094Z,98115.84
2023-04-04T04:05:30.408Z,98116.59
2023-04-04T04:07:58.669Z,98118.13
2023-04-04T04:10:27.613Z,98123.16
2023-04-04T04:12:56.051Z,98120.50
2023-04-04T04:15:24.334Z,98126.66
2023-04-04T04:17:54.388Z,98124.72
2023-04-04T04:20:22.975Z,98118.56
2023-04-04T04:22:53.856Z,98118.59
2023-04-04T04:25:23.029Z,98115.50
2023-04-04T04:27:51.243Z,98118.13
2023-04-04T04:30:19.764Z,98124.31
2023-04-04T04:32:50.370Z,98124.34
2023-04-04T04:35:20.099Z,98127.00
2023-04-04T04:37:50.128Z,98115.03
2023-04-04T04:40:19.752Z,98121.59
2023-04-04T04:42:50.722Z,98132.06
2023-04-04T04:45:20.371Z,98128.56
2023-04-04T04:47:48.781Z,98136.38
2023-04-04T04:50:17.767Z,98129.03
2023-04-04T04:52:47.378Z,98136.72
2023-04-04T04:55:15.964Z,98136.38
2023-04-04T04:57:44.287Z,98134.03
2023-04-04T05:00:13.897Z,98129.78
2023-04-04T05:02:42.237Z,98129.84
2023-04-04T05:05:11.035Z,98125.13
2023-04-04T05:07:39.392Z,98130.56
2023-04-04T05:10:09.892Z,98131.72
2023-04-04T05:12:38.370Z,98130.13
2023-04-04T05:15:08.081Z,98129.72
2023-04-04T05:17:37.545Z,98123.25
2023-04-04T05:20:07.922Z,98125.91
2023-04-04T05:22:36.030Z,98130.56
2023-04-04T05:25:04.199Z,98126.25
2023-04-04T05:27:33.718Z,98123.16
2023-04-04T05:30:01.936Z,98123.16
2023-04-04T05:32:30.302Z,98129.72
2023-04-04T05:34:58.509Z,98122.03
2023-04-04T05:37:26.740Z,98131.25
2023-04-04T05:39:55.340Z,98125.47
2023-04-04T05:42:23.532Z,98125.06
2023-04-04T05:44:53.279Z,98123.53
2023-04-04T05:47:22.242Z,98129.38
2023-04-04T05:49:50.594Z,98135.19
2023-04-04T05:52:18.819Z,98140.53
2023-04-04T05:54:47.480Z,98137.88
2023-04-04T05:57:15.663Z,98148.31
2023-04-04T05:59:44.029Z,98139.78
2023-04-04T06:02:13.658Z,98147.53
2023-04-04T06:04:41.698Z,98148.38
2023-04-04T06:07:09.828Z,98149.84
2023-04-04T06:09:38.477Z,98151.44
2023-04-04T06:12:06.839Z,98156.16
2023-04-04T06:14:35.047Z,98159.25
2023-04-04T06:17:03.534Z,98163.16
2023-04-04T06:19:33.177Z,98160.78
2023-04-04T06:22:01.222Z,98157.78
2023-04-04T06:24:29.398Z,98159.72
2023-04-04T06:26:57.537Z,98155.06
2023-04-04T06:29:26.926Z,98155.09
2023-04-04T06:31:55.383Z,98160.53
2023-04-04T06:34:23.935Z,98158.97
2023-04-04T06:36:53.476Z,98157.06
2023-04-04T06:39:21.694Z,98164.44
2023-04-04T06:41:49.839Z,98152.78
2023-04-04T06:44:17.965Z,98158.25
2023-04-04T06:46:46.189Z,98156.00
2023-04-04T06:49:14.526Z,98156.34
2023-04-04T06:51:42.924Z,98156.69
2023-04-04T06:54:12.511Z,98158.56
2023-04-04T06:56:40.687Z,98152.81
2023-04-04T06:59:11.505Z,98149.69
2023-04-04T07:01:40.220Z,98157.03
2023-04-04T07:04:08.408Z,98158.63
2023-04-04T07:06:37.326Z,98149.75
2023-04-04T07:09:08.861Z,98159.47
2023-04-04T07:11:40.534Z,98154.75
2023-04-04T07:14:08.673Z,98157.13
2023-04-04T07:16:38.177Z,98159.81
2023-04-04T07:19:06.760Z,98161.75
2023-04-04T07:21:34.894Z,98162.88
2023-04-04T07:24:03.984Z,98168.75
2023-04-04T07:26:32.112Z,98159.47
2023-04-04T07:29:01.958Z,98171.88
2023-04-04T07:31:30.663Z,98178.84
2023-04-04T07:33:58.853Z,98175.00
2023-04-04T07:36:26.966Z,98180.44
2023-04-04T07:38:55.283Z,98187.81
2023-04-04T07:41:24.364Z,98179.63
2023-04-04T07:43:52.594Z,98188.19
2023-04-04T07:46:23.277Z,98190.50
2023-04-04T07:48:51.862Z,98182.78
2023-04-04T07:51:24.255Z,98194.00
2023-04-04T07:53:52.481Z,98184.69
2023-04-04T07:56:21.856Z,98186.22
2023-04-04T07:58:50.302Z,98175.78
2023-04-04T08:01:18.445Z,98180.81
2023-04-04T08:03:48.154Z,98180.03
2023-04-04T08:06:16.433Z,98182.81
2023-04-04T08:08:46.993Z,98181.25
2023-04-04T08:11:15.490Z,98174.66
2023-04-04T08:13:43.730Z,98185.91
2023-04-04T08:16:11.931Z,98188.25
2023-04-04T08:18:40.160Z,98189.00
2023-04-04T08:21:09.743Z,98192.13
2023-04-04T08:23:38.532Z,98194.03
2023-04-04T08:26:06.774Z,98193.66
2023-04-04T08:28:35.000Z,98199.44
2023-04-04T08:31:03.614Z,98190.53
2023-04-04T08:33:44.498Z,98195.19
2023-04-04T08:36:16.830Z,98188.22
2023-04-04T08:38:45.016Z,98187.84
2023-04-04T08:41:16.042Z,98197.16
2023-04-04T08:43:54.608Z,98199.06
2023-04-04T08:46:24.469Z,98202.19
2023-04-04T08:48:54.553Z,98204.50
2023-04-04T08:51:26.327Z,98211.88
2023-04-04T08:53:55.934Z,98205.28
2023-04-04T08:56:25.151Z,98209.16
2023-04-04T08:58:53.422Z,98217.31
2023-04-04T09:01:23.427Z,98220.78
2023-04-04T09:03:53.666Z,98210.31
2023-04-04T09:06:24.579Z,98214.19
2023-04-04T09:08:54.687Z,98216.13
2023-04-04T09:11:25.236Z,98214.19
2023-04-04T09:13:56.231Z,98216.91
2023-04-04T09:16:24.778Z,98220.81
2023-04-04T09:18:53.791Z,98230.09
2023-04-04T09:21:23.842Z,98213.81
2023-04-04T09:24:01.145Z,98212.63
2023-04-04T09:26:29.392Z,98214.19
2023-04-04T09:28:57.744Z,98215.75
2023-04-04T09:31:27.420Z,98218.47
2023-04-04T09:33:55.778Z,98217.66
2023-04-04T09:36:28.049Z,98220.75
2023-04-04T09:38:56.533Z,98223.88
2023-04-04T09:41:27.723Z,98218.44
2023-04-04T09:43:59.268Z,98228.94
2023-04-04T09:46:28.165Z,98223.50
2023-04-04T09:48:56.605Z,98227.34
2023-04-04T09:51:35.867Z,98240.94
2023-04-04T09:54:04.291Z,98231.59
2023-04-04T09:56:33.287Z,98231.19
2023-04-04T09:59:04.686Z,98225.41
2023-04-04T10:01:34.706Z,98221.91
2023-04-04T10:04:05.658Z,98230.75
2023-04-04T10:06:38.013Z,98230.38
2023-04-04T10:09:09.635Z,98232.28
2023-04-04T10:11:38.971Z,98233.06
2023-04-04T10:14:07.140Z,98233.78
2023-04-04T10:16:40.204Z,98223.72
2023-04-04T10:19:09.739Z,98228.00
2023-04-04T10:21:40.074Z,98222.47
2023-04-04T10:24:10.422Z,98219.03
2023-04-04T10:26:38.792Z,98224.44
2023-04-04T10:29:07.193Z,98214.72
2023-04-04T10:31:43.868Z,98211.19
2023-04-04T10:34:17.598Z,98214.25
2023-04-04T10:36:51.527Z,98207.09
2023-04-04T10:39:26.325Z,98215.13
2023-04-04T10:41:56.815Z,98201.28
2023-04-04T10:44:31.900Z,98194.88
2023-04-04T10:47:05.553Z,98199.84
2023-04-04T10:49:34.961Z,98199.97
2023-04-04T10:52:05.897Z,98211.69
2023-04-04T10:54:35.247Z,98206.16
2023-04-04T10:57:04.277Z,98196.53
2023-04-04T10:59:33.493Z,98195.88
2023-04-04T11:02:07.046Z,98198.00
2023-04-04T11:04:38.717Z,98197.28
2023-04-04T11:07:19.443Z,98198.63
2023-04-04T11:09:52.957Z,98197.00
2023-04-04T11:12:29.162Z,98198.78
2023-04-04T11:15:11.113Z,98194.84
2023-04-04T11:17:51.367Z,98186.94
2023-04-04T11:20:22.136Z,98189.28
2023-04-04T11:23:03.571Z,98184.22
2023-04-04T11:25:42.831Z,98188.09
2023-04-04T11:28:16.187Z,98182.97
2023-04-04T11:30:49.051Z,98188.22
2023-04-04T11:33:32.362Z,98183.41
2023-04-04T11:36:08.446Z,98185.16
2023-04-04T11:38:42.241Z,98183.97
2023-04-04T11:41:10.926Z,98178.75
2023-04-04T11:43:46.874Z,98184.16
2023-04-04T11:46:19.788Z,98181.44
2023-04-04T11:48:49.889Z,98183.34
2023-04-04T11:51:21.020Z,98182.28
2023-04-04T11:53:50.980Z,98183.72
2023-04-04T11:56:21.445Z,98187.41
2023-04-04T11:58:56.060Z,98188.47
2023-04-04T12:01:30.480Z,98183.63
2023-04-04T12:04:02.543Z,98189.16
2023-04-04T12:06:33.277Z,98182.50
2023-04-04T12:09:04.194Z,98188.47
2023-04-04T12:11:34.837Z,98180.34
2023-04-04T12:14:03.308Z,98176.94
2023-04-04T12:16:32.098Z,98183.72
2023-04-04T12:19:03.358Z,98178.78
2023-04-04T12:21:33.824Z,98180.13
2023-04-04T12:24:03.906Z,98181.44
2023-04-04T12:26:33.491Z,98177.31
2023-04-04T12:29:02.510Z,98181.63
2023-04-04T12:31:32.219Z,98176.31
2023-04-04T12:34:01.229Z,98181.88
2023-04-04T12:36:31.617Z,98182.28
2023-04-04T12:39:01.957Z,98184.06
2023-04-04T12:41:32.481Z,98196.75
2023-04-04T12:44:03.583Z,98197.00
2023-04-04T12:46:39.785Z,98199.97
2023-04-04T12:49:10.346Z,98193.22
2023-04-04T12:51:39.508Z,98198.78
2023-04-04T12:54:08.941Z,98195.78
2023-04-04T12:56:39.666Z,98207.88
2023-04-04T12:59:11.681Z,98224.59
2023-04-04T13:01:40.463Z,98228.50
2023-04-04T13:04:09.940Z,98231.97
2023-04-04T13:06:42.411Z,98245.59
2023-04-04T13:09:19.173Z,98254.13
2023-04-04T13:12:09.941Z,98266.88
2023-04-04T13:15:00.571Z,98264.47
2023-04-04T13:17:42.449Z,98274.88
2023-04-04T13:20:11.597Z,98278.31
2023-04-04T13:22:41.126Z,98282.47
2023-04-04T13:25:10.892Z,98271.25
2023-04-04T13:27:42.361Z,98274.72
2023-04-04T13:30:11.686Z,98285.19
2023-04-04T13:32:39.956Z,98280.53
2023-04-04T13:35:09.414Z,98272.78
2023-04-04T13:37:38.707Z,98276.22
2023-04-04T13:40:08.421Z,98278.47
2023-04-04T13:42:36.529Z,98292.34
2023-04-04T13:45:07.472Z,98300.88
2023-04-04T13:47:36.144Z,98306.25
2023-04-04T13:50:04.998Z,98305.06
2023-04-04T13:52:33.240Z,98310.03
2023-04-04T13:55:02.521Z,98301.88
2023-04-04T13:57:30.700Z,98311.81
2023-04-04T13:59:58.935Z,98303.69
2023-04-04T14:02:30.470Z,98304.03
2023-04-04T14:04:59.009Z,98302.84
2023-04-04T14:07:27.290Z,98295.09
2023-04-04T14:09:55.589Z,98310.50
2023-04-04T14:12:23.787Z,98301.88
2023-04-04T14:14:52.148Z,98295.66
2023-04-04T14:17:20.434Z,98301.41
2023-04-04T14:19:50.621Z,98302.50
2023-04-04T14:22:19.662Z,98303.00
2023-04-04T14:24:47.922Z,98308.03
2023-04-04T14:27:16.087Z,98306.16
2023-04-04T14:29:44.514Z,98298.81
2023-04-04T14:32:12.854Z,98304.22
2023-04-04T14:34:41.273Z,98310.81
2023-04-04T14:37:11.114Z,98308.88
2023-04-04T14:39:39.776Z,98319.25
2023-04-04T14:42:08.199Z,98328.91
2023-04-04T14:44:36.605Z,98317.34
2023-04-04T14:47:04.820Z,98334.72
2023-04-04T14:49:33.134Z,98343.59
2023-04-04T14:52:01.509Z,98353.53
2023-04-04T14:54:31.177Z,98349.31
2023-04-04T14:56:59.355Z,98361.28
2023-04-04T14:59:28.301Z,98366.72
2023-04-04T15:01:56.607Z,98369.00
2023-04-04T15:04:24.825Z,98384.13
2023-04-04T15:06:53.591Z,98375.19
2023-04-04T15:09:21.957Z,98393.00
2023-04-04T15:11:52.486Z,98388.41
2023-04-04T15:14:23.044Z,98388.50
2023-04-04T15:16:51.385Z,98392.06
2023-04-04T15:19:19.581Z,98385.50
2023-04-04T15:21:49.222Z,98394.66
2023-04-04T15:24:17.327Z,98396.19
2023-04-04T15:26:45.862Z,98404.22
2023-04-04T15:29:15.877Z,98406.22
2023-04-04T15:31:44.074Z,98417.03
2023-04-04T15:34:12.421Z,98420.06
2023-04-04T15:36:40.588Z,98429.22
2023-04-04T15:39:09.032Z,98433.06
2023-04-04T15:41:37.224Z,98434.97
2023-04-04T15:44:05.891Z,98448.00
2023-04-04T15:46:36.216Z,98453.31
2023-04-04T15:49:04.606Z,98457.94
2023-04-04T15:51:32.891Z,98460.16
2023-04-04T15:54:01.225Z,98457.72
2023-04-04T15:56:29.738Z,98453.75
2023-04-04T15:58:58.260Z,98461.94
2023-04-04T16:01:26.839Z,98462.25
2023-04-04T16:03:56.592Z,98475.00
2023-04-04T16:06:26.173Z,98477.22
2023-04-04T16:08:54.476Z,98477.56
2023-04-04T16:11:23.016Z,98494.16
2023-04-04T16:13:51.181Z,98495.28
2023-04-04T16:16:19.855Z,98496.88
2023-04-04T16:18:48.106Z,98499.44
2023-04-04T16:21:18.659Z,98498.22
2023-04-04T16:23:46.846Z,98501.25
2023-04-04T16:26:15.311Z,98511.97
2023-04-04T16:28:44.850Z,98505.72
2023-04-04T16:31:15.872Z,98507.19
2023-04-04T16:33:44.157Z,98502.94
2023-04-04T16:36:12.665Z,98510.19
2023-04-04T16:38:42.219Z,98503.09
2023-04-04T16:41:10.331Z,98513.06
2023-04-04T16:43:38.551Z,98523.00
2023-04-04T16:46:07.018Z,98526.63
2023-04-04T16:48:35.203Z,98521.00
2023-04-04T16:51:03.826Z,98519.97
2023-04-04T16:53:31.967Z,98527.78
2023-04-04T16:56:01.523Z,98519.41
2023-04-04T16:58:29.718Z,98523.09
2023-04-04T17:00:58.047Z,98520.69
2023-04-04T17:03:26.268Z,98527.50
2023-04-04T17:05:59.664Z,98535.16
2023-04-04T17:19:13.821Z,98542.75
2023-04-04T17:21:41.978Z,98532.59
2023-04-04T17:24:10.053Z,98542.16
2023-04-04T17:26:38.305Z,98539.47
2023-04-04T17:29:06.484Z,98548.25
2023-04-04T17:31:34.788Z,98554.03
2023-04-04T17:34:03.518Z,98556.22
2023-04-04T17:36:33.266Z,98558.09
2023-04-04T17:39:01.469Z,98567.59
2023-04-04T17:41:29.642Z,98582.22
2023-04-04T17:43:57.789Z,98584.03
2023-04-04T17:46:26.079Z,98589.78
2023-04-04T17:48:54.857Z,98590.50
2023-04-04T17:51:23.096Z,98596.22
2023-04-04T17:53:52.862Z,98602.13
2023-04-04T17:56:21.178Z,98607.53
2023-04-04T17:58:50.749Z,98602.22
2023-04-04T18:01:20.023Z,98615.00
2023-04-04T18:03:48.516Z,98618.47
2023-04-04T18:06:16.880Z,98620.41
2023-04-04T18:08:45.381Z,98628.72
2023-04-04T18:11:14.976Z,98631.69
2023-04-04T18:13:44.240Z,98646.09
2023-04-04T18:16:12.897Z,98647.56
2023-04-04T18:18:41.509Z,98651.84
2023-04-04T18:21:09.935Z,98651.41
2023-04-04T18:23:38.073Z,98658.72
2023-04-04T18:26:07.098Z,98667.66
2023-04-04T18:28:36.674Z,98664.81
2023-04-04T18:31:05.231Z,98673.75
2023-04-04T18:33:35.260Z,98676.38
2023-04-04T18:36:05.026Z,98679.34
2023-04-04T18:38:36.329Z,98674.13
2023-04-04T18:41:05.837Z,98683.19
2023-04-04T18:43:34.375Z,98687.78
2023-04-04T18:46:05.749Z,98669.34
2023-04-04T18:48:34.805Z,98686.22
2023-04-04T18:51:04.534Z,98688.91
2023-04-04T18:53:33.195Z,98689.34
2023-04-04T18:56:01.408Z,98699.25
2023-04-04T18:58:30.665Z,98692.75
2023-04-04T19:00:59.230Z,98695.44
2023-04-04T19:03:28.869Z,98699.25
2023-04-04T19:05:57.428Z,98708.38
2023-04-04T19:08:26.068Z,98709.94
2023-04-04T19:10:54.638Z,98706.91
2023-04-04T19:13:22.862Z,98709.16
2023-04-04T19:15:51.010Z,98712.56
2023-04-04T19:18:19.245Z,98706.72
2023-04-04T19:20:49.025Z,98711.25
2023-04-04T19:23:17.471Z,98709.25
2023-04-04T19:25:46.134Z,98707.59
2023-04-04T19:28:14.298Z,98710.63
2023-04-04T19:30:44.718Z,98710.81
2023-04-04T19:33:13.838Z,98696.44
2023-04-04T19:35:55.270Z,98709.31
2023-04-04T19:38:26.130Z,98709.31
2023-04-04T19:40:57.814Z,98720.09
2023-04-04T19:43:27.033Z,98712.00
2023-04-04T19:45:56.580Z,98710.78
2023-04-04T19:48:46.229Z,98711.16
2023-04-04T19:51:40.455Z,98712.88
2023-04-04T19:54:15.091Z,98716.25
2023-04-04T19:56:45.265Z,98708.25
2023-04-04T19:59:46.591Z,98709.22
2023-04-04T20:02:39.712Z,98708.34
2023-04-04T20:05:54.528Z,98718.25
2023-04-04T20:08:24.269Z,98724.34
2023-04-04T20:10:57.125Z,98713.19
2023-04-04T20:13:25.298Z,98723.63
2023-04-04T20:16:01.423Z,98717.47
2023-04-04T20:18:31.671Z,98736.34
2023-04-04T20:21:10.928Z,98714.78
2023-04-04T20:23:45.685Z,98721.19
2023-04-04T20:26:17.302Z,98725.44
2023-04-04T20:28:47.499Z,98718.16
2023-04-04T20:31:18.441Z,98719.72
2023-04-04T20:33:47.313Z,98715.81
2023-04-04T20:36:33.067Z,98714.34
2023-04-04T20:39:02.705Z,98724.75
2023-04-04T20:41:30.815Z,98723.09
2023-04-04T20:44:01.116Z,98717.72
2023-04-04T20:46:33.886Z,98719.53
2023-04-04T20:49:02.298Z,98717.53
2023-04-04T20:51:31.666Z,98716.41
2023-04-04T20:54:03.435Z,98720.66
2023-04-04T20:56:47.695Z,98712.91
2023-04-04T20:59:36.641Z,98712.56
2023-04-04T21:02:12.384Z,98722.50
2023-04-04T21:04:45.034Z,98714.81
2023-04-04T21:07:37.993Z,98723.59
2023-04-04T21:10:22.445Z,98721.91
2023-04-04T21:12:51.949Z,98722.28
2023-04-04T21:15:28.480Z,98722.03
2023-04-04T21:17:57.349Z,98738.66
2023-04-04T21:21:14.239Z,98738.66
2023-04-04T21:23:47.228Z,98736.28
2023-04-04T21:26:28.940Z,98736.72
2023-04-04T21:28:58.389Z,98739.75
2023-04-04T21:31:28.840Z,98755.81
2023-04-04T21:33:58.452Z,98746.06
2023-04-04T21:36:30.163Z,98747.19
2023-04-04T21:38:59.934Z,98752.69
2023-04-04T21:41:30.538Z,98763.81
2023-04-04T21:44:01.057Z,98759.19
2023-04-04T21:46:31.165Z,98760.22
2023-04-04T21:48:59.263Z,98769.97
2023-04-04T21:51:27.507Z,98766.06
2023-04-04T21:53:56.462Z,98765.16
2023-04-04T21:56:27.486Z,98771.66
2023-04-04T21:58:57.233Z,98772.44
2023-04-04T22:01:25.662Z,98783.56
2023-04-04T22:03:54.312Z,98783.13
2023-04-04T22:21:48.725Z,98785.06
2023-04-04T22:24:18.548Z,98785.50
2023-04-04T22:26:47.494Z,98785.84
2023-04-04T22:29:16.052Z,98779.56
2023-04-04T22:31:44.516Z,98793.03
2023-04-04T22:34:14.977Z,98797.97
2023-04-04T22:36:45.132Z,98792.94
2023-04-04T22:39:16.321Z,98793.72
2023-04-04T22:41:45.239Z,98800.09
2023-04-04T22:44:16.763Z,98802.47
2023-04-04T22:46:46.996Z,98797.09
2023-04-04T22:49:17.974Z,98799.00
2023-04-04T22:51:47.972Z,98809.41
2023-04-04T22:54:17.132Z,98805.16
2023-04-04T22:56:45.545Z,98797.31
2023-04-04T22:59:17.560Z,98806.53
2023-04-04T23:01:45.881Z,98814.13
2023-04-04T23:04:14.090Z,98815.56
2023-04-04T23:06:44.942Z,98818.75
2023-04-04T23:09:14.673Z,98815.69
2023-04-04T23:11:42.933Z,98819.63
2023-04-04T23:14:15.390Z,98820.75
2023-04-04T23:16:43.791Z,98813.38
2023-04-04T23:19:12.249Z,98809.41
2023-04-04T23:21:40.626Z,98808.59
2023-04-04T23:24:08.957Z,98817.47
2023-04-04T23:26:38.714Z,98814.44
2023-04-04T23:29:07.439Z,98806.38
2023-04-04T23:31:36.548Z,98810.00
2023-04-04T23:34:04.876Z,98818.50
2023-04-04T23:36:33.151Z,98809.84
2023-04-04T23:39:01.297Z,98808.41
2023-04-04T23:41:29.504Z,98814.59
2023-04-04T23:43:59.053Z,98821.44
2023-04-04T23:46:30.505Z,98821.72
2023-04-04T23:48:58.663Z,98817.13
2023-04-04T23:51:30.492Z,98821.84
2023-04-04T23:53:58.716Z,98823.66
2023-04-04T23:56:26.789Z,98827.13
2023-04-04T23:58:55.317Z,98824.41
